createdAt,value
2023-02-24T00:01:51.447Z,37.63
2023-02-24T00:04:21.804Z,37.50
2023-02-24T00:06:49.331Z,37.87
2023-02-24T00:09:24.835Z,36.27
2023-02-24T00:12:06.264Z,37.80
2023-02-24T00:14:35.990Z,37.90
2023-02-24T00:17:03.154Z,38.80
2023-02-24T00:19:35.341Z,36.40
2023-02-24T00:22:03.144Z,36.83
2023-02-24T00:24:31.172Z,38.33
2023-02-24T00:27:07.662Z,39.23
2023-02-24T00:29:37.662Z,39.15
2023-02-24T00:32:08.095Z,37.00
2023-02-24T00:34:36.516Z,35.53
2023-02-24T00:37:04.148Z,35.00
2023-02-24T00:39:34.827Z,36.07
2023-02-24T00:42:05.677Z,34.47
2023-02-24T00:44:36.281Z,35.50
2023-02-24T00:47:05.013Z,37.33
2023-02-24T00:49:32.637Z,36.07
2023-02-24T00:52:00.280Z,37.83
2023-02-24T00:54:28.492Z,37.33
2023-02-24T00:56:56.391Z,37.83
2023-02-24T00:59:24.198Z,38.73
2023-02-24T01:01:52.069Z,38.43
2023-02-24T01:04:20.243Z,39.73
2023-02-24T01:07:11.904Z,37.87
2023-02-24T01:09:39.820Z,37.60
2023-02-24T01:12:29.200Z,38.03
2023-02-24T01:15:09.190Z,37.27
2023-02-24T01:17:37.721Z,37.13
2023-02-24T01:20:16.000Z,38.13
2023-02-24T01:22:46.853Z,39.07
2023-02-24T01:25:14.436Z,39.40
2023-02-24T01:27:41.941Z,39.87
2023-02-24T01:30:16.847Z,40.00
2023-02-24T01:32:44.382Z,38.30
2023-02-24T01:35:12.307Z,38.63
2023-02-24T01:37:40.121Z,38.23
2023-02-24T01:40:12.131Z,39.00
2023-02-24T01:42:42.465Z,36.93
2023-02-24T01:45:15.018Z,38.77
2023-02-24T01:47:41.607Z,36.70
2023-02-24T01:50:09.877Z,34.90
2023-02-24T01:52:37.628Z,34.87
2023-02-24T01:55:13.395Z,36.03
2023-02-24T01:57:41.535Z,35.97
2023-02-24T02:00:20.441Z,36.47
2023-02-24T02:02:54.679Z,33.37
2023-02-24T02:05:22.678Z,35.07
2023-02-24T02:07:51.376Z,36.13
2023-02-24T02:10:19.556Z,35.97
2023-02-24T02:12:46.666Z,37.67
2023-02-24T02:15:14.528Z,36.00
2023-02-24T02:17:59.657Z,37.33
2023-02-24T02:20:32.726Z,35.90
2023-02-24T02:23:18.077Z,33.70
2023-02-24T02:26:05.955Z,34.40
2023-02-24T02:28:45.539Z,32.33
2023-02-24T02:31:46.773Z,33.50
2023-02-24T02:34:27.751Z,33.87
2023-02-24T02:37:00.535Z,35.60
2023-02-24T02:39:47.318Z,34.80
2023-02-24T02:42:38.734Z,33.80
2023-02-24T02:45:33.731Z,35.43
2023-02-24T02:48:17.624Z,33.73
2023-02-24T02:51:18.965Z,34.50
2023-02-24T02:53:59.393Z,34.60
2023-02-24T02:56:30.916Z,34.20
2023-02-24T02:58:58.707Z,36.50
2023-02-24T03:01:28.530Z,35.80
2023-02-24T03:03:56.922Z,35.43
2023-02-24T03:06:28.130Z,35.53
2023-02-24T03:09:11.529Z,34.50
2023-02-24T03:11:59.778Z,35.13
2023-02-24T03:14:28.847Z,34.47
2023-02-24T03:16:55.894Z,35.63
2023-02-24T03:19:37.349Z,33.30
2023-02-24T03:22:12.518Z,33.60
2023-02-24T03:24:41.150Z,33.23
2023-02-24T03:27:34.482Z,32.87
2023-02-24T03:30:09.717Z,32.80
2023-02-24T03:32:58.612Z,32.67
2023-02-24T03:35:38.181Z,30.07
2023-02-24T03:38:06.426Z,31.50
2023-02-24T03:40:36.157Z,30.00
2023-02-24T03:43:06.014Z,30.53
2023-02-24T03:45:35.816Z,30.37
2023-02-24T03:48:03.725Z,28.77
2023-02-24T03:50:32.508Z,29.87
2023-02-24T03:53:31.441Z,29.17
2023-02-24T03:56:22.245Z,30.17
2023-02-24T03:59:15.334Z,29.23
2023-02-24T04:01:51.103Z,30.57
2023-02-24T04:04:30.429Z,31.40
2023-02-24T04:07:10.062Z,32.70
2023-02-24T04:10:15.554Z,31.53
2023-02-24T04:12:50.282Z,33.33
2023-02-24T04:15:23.991Z,33.57
2023-02-24T04:18:07.287Z,32.67
2023-02-24T04:20:35.381Z,31.70
2023-02-24T04:23:13.096Z,32.03
2023-02-24T04:25:40.498Z,32.50
2023-02-24T04:28:10.562Z,32.50
2023-02-24T04:30:40.950Z,33.00
2023-02-24T04:33:08.260Z,35.57
2023-02-24T04:35:35.778Z,37.27
2023-02-24T04:38:03.737Z,36.03
2023-02-24T04:40:31.486Z,35.63
2023-02-24T04:42:59.060Z,37.23
2023-02-24T04:45:29.257Z,36.50
2023-02-24T04:48:01.147Z,34.93
2023-02-24T04:50:33.585Z,32.50
2023-02-24T04:53:14.872Z,33.10
2023-02-24T04:55:48.987Z,30.93
2023-02-24T04:58:26.086Z,33.03
2023-02-24T05:00:54.495Z,33.47
2023-02-24T05:03:23.202Z,32.43
2023-02-24T05:06:15.212Z,32.27
2023-02-24T05:08:42.830Z,33.73
2023-02-24T05:11:34.996Z,32.67
2023-02-24T05:14:04.695Z,34.50
2023-02-24T05:16:32.505Z,33.83
2023-02-24T05:19:18.771Z,34.40
2023-02-24T05:21:46.921Z,36.27
2023-02-24T05:24:17.237Z,35.37
2023-02-24T05:26:44.963Z,36.77
2023-02-24T05:29:13.301Z,37.47
2023-02-24T05:31:41.303Z,36.00
2023-02-24T05:34:09.044Z,38.73
2023-02-24T05:36:40.671Z,38.57
2023-02-24T05:39:12.004Z,36.83
2023-02-24T05:41:42.328Z,35.67
2023-02-24T05:44:23.866Z,35.37
2023-02-24T05:46:56.900Z,33.90
2023-02-24T05:49:33.281Z,35.20
2023-02-24T05:52:01.960Z,32.83
2023-02-24T05:54:35.836Z,33.00
2023-02-24T05:57:09.352Z,34.73
2023-02-24T05:59:37.391Z,35.93
2023-02-24T06:02:09.672Z,34.30
2023-02-24T06:04:45.739Z,33.87
2023-02-24T06:07:14.311Z,34.00
2023-02-24T06:09:45.461Z,35.13
2023-02-24T06:12:16.625Z,35.43
2023-02-24T06:14:45.194Z,35.20
2023-02-24T06:17:15.244Z,35.23
2023-02-24T06:19:43.553Z,35.33
2023-02-24T06:22:13.389Z,34.87
2023-02-24T06:24:44.472Z,34.50
2023-02-24T06:27:19.307Z,34.93
2023-02-24T06:29:50.166Z,36.00
2023-02-24T06:32:22.846Z,37.80
2023-02-24T06:34:52.091Z,36.67
2023-02-24T06:37:20.110Z,37.50
2023-02-24T06:39:48.106Z,35.17
2023-02-24T06:42:16.116Z,34.13
2023-02-24T06:44:43.967Z,36.67
2023-02-24T06:47:14.520Z,35.03
2023-02-24T06:49:42.970Z,35.07
2023-02-24T06:54:44.861Z,36.10
2023-02-24T06:57:12.950Z,35.93
2023-02-24T06:59:41.288Z,36.67
2023-02-24T07:02:11.148Z,36.40
2023-02-24T07:04:45.948Z,35.67
2023-02-24T07:07:17.863Z,35.40
2023-02-24T07:09:48.814Z,35.00
2023-02-24T07:12:21.255Z,37.73
2023-02-24T07:14:50.586Z,37.83
2023-02-24T07:17:20.724Z,35.83
2023-02-24T07:19:49.332Z,36.73
2023-02-24T07:22:17.715Z,34.30
2023-02-24T07:24:46.555Z,35.83
2023-02-24T07:27:22.734Z,37.07
2023-02-24T07:29:53.730Z,35.58
2023-02-24T07:32:22.669Z,37.27
2023-02-24T07:34:51.320Z,35.80
2023-02-24T07:37:20.755Z,37.93
2023-02-24T07:39:49.404Z,37.77
2023-02-24T07:42:18.319Z,35.73
2023-02-24T07:44:49.347Z,37.57
2023-02-24T07:47:17.714Z,36.57
2023-02-24T07:49:45.988Z,39.50
2023-02-24T07:52:14.267Z,40.23
2023-02-24T07:54:43.369Z,37.70
2023-02-24T07:57:14.343Z,37.87
2023-02-24T07:59:45.406Z,37.13
2023-02-24T08:02:14.103Z,39.23
2023-02-24T08:04:48.386Z,37.50
2023-02-24T08:07:17.311Z,39.73
2023-02-24T08:09:45.650Z,38.50
2023-02-24T08:12:18.398Z,37.80
2023-02-24T08:14:51.003Z,41.03
2023-02-24T08:17:23.307Z,44.17
2023-02-24T08:20:01.185Z,43.67
2023-02-24T08:22:37.559Z,42.60
2023-02-24T08:25:07.397Z,41.75
2023-02-24T08:27:39.167Z,43.23
2023-02-24T08:30:09.775Z,40.93
2023-02-24T08:32:45.130Z,44.17
2023-02-24T08:35:20.446Z,43.27
2023-02-24T08:38:09.793Z,42.57
2023-02-24T08:40:50.304Z,42.13
2023-02-24T08:43:33.272Z,44.90
2023-02-24T08:46:19.165Z,42.63
2023-02-24T08:48:50.204Z,43.10
2023-02-24T08:51:23.546Z,45.30
2023-02-24T08:53:55.747Z,43.77
2023-02-24T08:56:26.495Z,45.00
2023-02-24T08:59:05.804Z,47.63
2023-02-24T09:01:36.919Z,46.30
2023-02-24T09:04:08.765Z,45.00
2023-02-24T09:06:37.538Z,44.50
2023-02-24T09:09:18.921Z,43.07
2023-02-24T09:12:10.691Z,43.10
2023-02-24T09:14:38.309Z,42.90
2023-02-24T09:17:11.423Z,44.37
2023-02-24T09:19:52.611Z,42.13
2023-02-24T09:22:33.093Z,43.73
2023-02-24T09:25:19.187Z,43.77
2023-02-24T09:27:48.312Z,43.87
2023-02-24T09:30:35.479Z,42.67
2023-02-24T09:33:42.370Z,42.72
2023-02-24T09:36:44.956Z,41.53
2023-02-24T09:39:14.878Z,42.47
2023-02-24T09:42:18.154Z,44.00
2023-02-24T09:45:11.485Z,40.53
2023-02-24T09:47:40.161Z,41.53
2023-02-24T09:50:55.151Z,41.43
2023-02-24T09:53:14.791Z,40.40
2023-02-24T09:56:17.869Z,42.37
2023-02-24T09:59:07.321Z,41.13
2023-02-24T10:01:36.973Z,41.90
2023-02-24T10:04:49.178Z,41.43
2023-02-24T10:07:19.237Z,42.93
2023-02-24T10:10:19.903Z,42.53
2023-02-24T10:12:53.912Z,41.00
2023-02-24T10:15:41.157Z,42.10
2023-02-24T10:18:27.451Z,41.28
2023-02-24T10:21:48.369Z,38.07
2023-02-24T10:24:24.550Z,40.00
2023-02-24T10:27:16.851Z,39.92
2023-02-24T10:30:05.868Z,41.13
2023-02-24T10:32:51.255Z,39.90
2023-02-24T10:35:20.692Z,40.80
2023-02-24T10:37:49.308Z,39.07
2023-02-24T10:40:26.502Z,40.60
2023-02-24T10:43:10.759Z,38.83
2023-02-24T10:45:45.243Z,38.90
2023-02-24T10:48:42.745Z,39.47
2023-02-24T10:51:20.141Z,35.95
2023-02-24T10:54:08.857Z,39.13
2023-02-24T10:56:55.644Z,39.70
2023-02-24T10:59:48.275Z,37.90
2023-02-24T11:02:29.725Z,37.07
2023-02-24T11:05:03.556Z,37.53
2023-02-24T11:07:45.405Z,38.83
2023-02-24T11:10:25.903Z,37.00
2023-02-24T11:13:25.885Z,35.83
2023-02-24T11:16:12.370Z,34.47
2023-02-24T11:18:40.101Z,35.03
2023-02-24T11:21:09.436Z,36.23
2023-02-24T11:23:45.156Z,35.57
2023-02-24T11:26:21.563Z,34.75
2023-02-24T11:29:17.542Z,35.47
2023-02-24T11:32:18.951Z,34.97
2023-02-24T11:34:51.736Z,35.80
2023-02-24T11:37:43.094Z,36.67
2023-02-24T11:40:19.801Z,32.07
2023-02-24T11:42:56.210Z,30.25
2023-02-24T11:48:25.335Z,29.17
2023-02-24T11:51:06.514Z,30.23
2023-02-24T11:53:58.063Z,30.20
2023-02-24T11:56:31.434Z,30.13
2023-02-24T11:59:30.782Z,32.80
2023-02-24T12:02:17.604Z,30.33
2023-02-24T12:07:54.728Z,32.27
2023-02-24T12:10:47.693Z,31.87
2023-02-24T12:13:41.011Z,31.97
2023-02-24T12:16:08.006Z,30.97
2023-02-24T12:18:37.352Z,32.00
2023-02-24T12:21:24.961Z,32.57
2023-02-24T12:23:53.782Z,31.43
2023-02-24T12:26:25.227Z,34.13
2023-02-24T12:29:16.248Z,31.07
2023-02-24T12:31:54.499Z,30.53
2023-02-24T12:34:36.232Z,32.43
2023-02-24T12:37:24.520Z,32.17
2023-02-24T12:40:01.753Z,33.00
2023-02-24T12:43:02.299Z,32.47
2023-02-24T12:45:46.375Z,33.57
2023-02-24T12:48:28.814Z,32.27
2023-02-24T12:51:21.511Z,32.23
2023-02-24T12:54:09.755Z,30.37
2023-02-24T12:57:00.911Z,29.97
2023-02-24T12:59:29.475Z,30.53
2023-02-24T13:02:30.556Z,29.80
2023-02-24T13:05:08.657Z,30.10
2023-02-24T13:07:39.696Z,30.17
2023-02-24T13:10:36.760Z,29.77
2023-02-24T13:13:15.690Z,29.80
2023-02-24T13:16:10.225Z,29.17
2023-02-24T13:18:39.667Z,28.50
2023-02-24T13:21:15.787Z,29.73
2023-02-24T13:23:43.468Z,29.33
2023-02-24T13:26:10.568Z,27.07
2023-02-24T13:28:38.523Z,28.57
2023-02-24T13:31:10.351Z,30.17
2023-02-24T13:33:42.192Z,27.60
2023-02-24T13:36:36.321Z,29.40
2023-02-24T13:39:03.262Z,29.10
2023-02-24T13:41:30.221Z,30.13
2023-02-24T13:43:58.469Z,28.63
2023-02-24T13:46:26.655Z,27.27
2023-02-24T13:49:14.571Z,27.90
2023-02-24T13:51:50.571Z,28.37
2023-02-24T13:54:29.368Z,26.50
2023-02-24T13:57:34.844Z,27.30
2023-02-24T14:00:12.619Z,26.20
2023-02-24T14:02:42.902Z,26.43
2023-02-24T14:05:17.413Z,25.13
2023-02-24T14:07:44.717Z,26.00
2023-02-24T14:10:23.252Z,25.43
2023-02-24T14:12:51.569Z,27.70
2023-02-24T14:15:26.253Z,25.33
2023-02-24T14:18:20.256Z,24.60
2023-02-24T14:20:47.959Z,24.87
2023-02-24T14:23:22.394Z,24.37
2023-02-24T14:25:52.800Z,23.37
2023-02-24T14:28:23.349Z,25.70
2023-02-24T14:30:55.012Z,24.97
2023-02-24T14:33:33.137Z,27.30
2023-02-24T14:36:01.315Z,23.63
2023-02-24T14:38:32.319Z,23.30
2023-02-24T14:40:59.758Z,24.20
2023-02-24T14:43:26.960Z,23.87
2023-02-24T14:45:54.804Z,23.03
2023-02-24T14:48:52.534Z,21.27
2023-02-24T14:53:54.645Z,21.60
2023-02-24T14:56:22.578Z,22.30
2023-02-24T14:58:54.819Z,24.27
2023-02-24T15:01:34.627Z,23.20
2023-02-24T15:04:11.342Z,24.00
2023-02-24T15:06:41.075Z,23.90
2023-02-24T15:09:42.644Z,23.40
2023-02-24T15:12:29.917Z,23.30
2023-02-24T15:17:25.354Z,24.43
2023-02-24T15:19:55.846Z,25.70
2023-02-24T15:22:25.822Z,24.80
2023-02-24T15:24:55.848Z,24.10
2023-02-24T15:27:27.988Z,25.80
2023-02-24T15:30:07.982Z,23.93
2023-02-24T15:32:37.710Z,23.63
2023-02-24T15:35:05.610Z,24.60
2023-02-24T15:37:42.062Z,24.13
2023-02-24T15:40:21.731Z,25.02
2023-02-24T15:42:56.780Z,25.37
2023-02-24T15:45:23.782Z,23.87
2023-02-24T15:47:55.611Z,23.20
2023-02-24T15:50:23.619Z,25.43
2023-02-24T15:52:51.222Z,24.27
2023-02-24T15:55:20.000Z,23.97
2023-02-24T15:57:48.405Z,23.73
2023-02-24T16:00:18.354Z,25.23
2023-02-24T16:02:47.144Z,24.80
2023-02-24T16:05:14.710Z,25.27
2023-02-24T16:07:44.205Z,23.70
2023-02-24T16:10:27.725Z,25.37
2023-02-24T16:12:56.151Z,25.90
2023-02-24T16:15:31.921Z,30.23
2023-02-24T16:17:59.442Z,32.80
2023-02-24T16:20:28.505Z,34.60
2023-02-24T16:22:57.361Z,41.90
2023-02-24T16:25:24.893Z,39.87
2023-02-24T16:27:57.387Z,33.30
2023-02-24T16:30:30.528Z,34.50
2023-02-24T16:32:59.584Z,36.00
2023-02-24T16:35:31.522Z,33.10
2023-02-24T16:38:00.868Z,32.17
2023-02-24T16:40:33.650Z,34.37
2023-02-24T16:43:01.697Z,30.27
2023-02-24T16:45:29.890Z,28.03
2023-02-24T16:47:59.121Z,28.47
2023-02-24T16:50:31.759Z,25.83
2023-02-24T16:52:59.985Z,26.37
2023-02-24T16:55:27.579Z,26.53
2023-02-24T16:57:55.562Z,25.87
2023-02-24T17:00:24.398Z,27.07
2023-02-24T17:02:52.375Z,26.73
2023-02-24T17:05:21.032Z,27.13
2023-02-24T17:07:48.974Z,25.00
2023-02-24T17:10:17.772Z,26.50
2023-02-24T17:12:45.455Z,25.47
2023-02-24T17:15:17.397Z,25.30
2023-02-24T17:17:44.941Z,26.40
2023-02-24T17:20:16.080Z,25.07
2023-02-24T17:22:44.132Z,24.17
2023-02-24T17:25:19.079Z,25.33
2023-02-24T17:27:47.366Z,26.23
2023-02-24T17:30:15.957Z,24.23
2023-02-24T17:32:44.157Z,25.27
2023-02-24T17:35:12.168Z,26.77
2023-02-24T17:37:40.319Z,25.80
2023-02-24T17:40:09.789Z,26.03
2023-02-24T17:42:37.759Z,25.33
2023-02-24T17:45:08.176Z,24.90
2023-02-24T17:47:36.579Z,26.10
2023-02-24T17:50:04.192Z,31.10
2023-02-24T17:52:32.156Z,30.80
2023-02-24T17:55:00.013Z,32.77
2023-02-24T17:57:29.474Z,34.23
2023-02-24T17:59:57.120Z,31.10
2023-02-24T18:02:24.560Z,30.17
2023-02-24T18:04:52.844Z,29.83
2023-02-24T18:07:21.239Z,27.07
2023-02-24T18:09:49.266Z,27.97
2023-02-24T18:12:18.704Z,26.30
2023-02-24T18:14:51.354Z,27.40
2023-02-24T18:17:24.506Z,27.03
2023-02-24T18:19:55.613Z,28.63
2023-02-24T18:22:23.237Z,28.40
2023-02-24T18:24:51.124Z,28.47
2023-02-24T18:27:17.992Z,27.93
2023-02-24T18:29:45.966Z,29.00
2023-02-24T18:32:14.046Z,29.33
2023-02-24T18:34:41.760Z,28.07
2023-02-24T18:37:09.380Z,27.67
2023-02-24T18:39:37.661Z,29.43
2023-02-24T18:42:05.954Z,28.77
2023-02-24T18:44:33.884Z,29.70
2023-02-24T18:47:01.960Z,30.53
2023-02-24T18:49:29.996Z,29.50
2023-02-24T18:51:59.662Z,29.03
2023-02-24T18:54:27.304Z,30.27
2023-02-24T18:56:55.317Z,30.90
2023-02-24T18:59:23.276Z,31.00
2023-02-24T19:01:51.548Z,30.23
2023-02-24T19:04:19.583Z,29.60
2023-02-24T19:06:49.121Z,32.50
2023-02-24T19:09:16.549Z,31.80
2023-02-24T19:11:44.343Z,32.10
2023-02-24T19:14:12.210Z,31.13
2023-02-24T19:16:40.432Z,32.30
2023-02-24T19:19:08.075Z,32.53
2023-02-24T19:21:35.899Z,32.23
2023-02-24T19:24:08.117Z,32.00
2023-02-24T19:26:35.765Z,31.60
2023-02-24T19:29:04.062Z,31.47
2023-02-24T19:31:32.567Z,32.83
2023-02-24T19:34:23.673Z,31.60
2023-02-24T19:36:51.603Z,30.40
2023-02-24T19:39:19.205Z,32.43
2023-02-24T19:41:49.473Z,32.30
2023-02-24T19:44:16.930Z,34.30
2023-02-24T19:46:44.794Z,34.70
2023-02-24T19:49:12.369Z,34.83
2023-02-24T19:51:39.872Z,37.27
2023-02-24T19:54:08.219Z,52.33
2023-02-24T19:56:36.790Z,44.77
2023-02-24T19:59:05.909Z,39.57
2023-02-24T20:01:33.624Z,38.27
2023-02-24T20:04:02.485Z,39.07
2023-02-24T20:06:31.924Z,35.80
2023-02-24T20:08:59.980Z,35.23
2023-02-24T20:11:29.761Z,35.33
2023-02-24T20:13:56.976Z,32.77
2023-02-24T20:16:26.264Z,32.83
2023-02-24T20:18:55.564Z,34.17
2023-02-24T20:21:23.751Z,33.40
2023-02-24T20:23:51.348Z,31.53
2023-02-24T20:26:19.827Z,33.40
2023-02-24T20:28:47.979Z,33.60
2023-02-24T20:31:17.642Z,33.80
2023-02-24T20:33:45.598Z,33.77
2023-02-24T20:36:24.381Z,33.67
2023-02-24T20:38:52.676Z,35.50
2023-02-24T20:41:20.801Z,36.87
2023-02-24T20:43:49.142Z,37.87
2023-02-24T20:46:24.268Z,36.93
2023-02-24T20:48:53.381Z,35.87
2023-02-24T20:51:20.991Z,34.87
2023-02-24T20:53:57.337Z,37.57
2023-02-24T20:56:26.869Z,37.65
2023-02-24T20:59:00.384Z,37.23
2023-02-24T21:01:27.954Z,36.97
2023-02-24T21:03:55.973Z,35.37
2023-02-24T21:06:23.857Z,36.00
2023-02-24T21:08:53.416Z,36.90
2023-02-24T21:11:21.592Z,36.67
2023-02-24T21:13:49.321Z,36.97
2023-02-24T21:16:18.069Z,36.27
2023-02-24T21:18:46.594Z,35.60
2023-02-24T21:21:15.380Z,35.40
2023-02-24T21:23:42.553Z,37.13
2023-02-24T21:26:09.840Z,39.63
2023-02-24T21:28:37.459Z,37.47
2023-02-24T21:31:11.677Z,37.73
2023-02-24T21:33:39.896Z,37.20
2023-02-24T21:36:09.832Z,36.00
2023-02-24T21:38:38.275Z,36.07
2023-02-24T21:41:07.126Z,36.30
2023-02-24T21:43:35.197Z,36.67
2023-02-24T21:46:03.681Z,36.57
2023-02-24T21:48:31.563Z,34.63
2023-02-24T21:51:00.549Z,36.77
2023-02-24T21:53:28.545Z,37.57
2023-02-24T21:56:04.556Z,39.37
2023-02-24T21:58:32.878Z,39.05
2023-02-24T22:01:01.238Z,39.10
2023-02-24T22:03:29.218Z,38.53
2023-02-24T22:05:56.863Z,39.30
2023-02-24T22:08:24.961Z,40.10
2023-02-24T22:10:59.759Z,43.10
2023-02-24T22:13:27.594Z,39.83
2023-02-24T22:15:55.195Z,37.93
2023-02-24T22:18:23.207Z,37.03
2023-02-24T22:20:51.142Z,35.20
2023-02-24T22:23:18.992Z,34.97
2023-02-24T22:25:46.926Z,35.57
2023-02-24T22:28:14.893Z,35.87
2023-02-24T22:30:42.889Z,35.90
2023-02-24T22:33:10.863Z,36.53
2023-02-24T22:35:38.900Z,36.03
2023-02-24T22:38:06.519Z,32.90
2023-02-24T22:40:34.052Z,36.63
2023-02-24T22:43:01.805Z,35.23
2023-02-24T22:45:29.892Z,34.63
2023-02-24T22:47:59.417Z,34.83
2023-02-24T22:50:27.928Z,34.77
2023-02-24T22:52:56.196Z,36.00
2023-02-24T22:55:25.115Z,35.77
2023-02-24T22:57:53.113Z,35.10
2023-02-24T23:00:23.313Z,36.30
2023-02-24T23:02:50.872Z,35.33
2023-02-24T23:05:19.041Z,37.30
2023-02-24T23:07:48.575Z,36.33
2023-02-24T23:10:17.075Z,37.03
2023-02-24T23:12:44.971Z,34.90
2023-02-24T23:15:13.819Z,35.20
2023-02-24T23:17:42.300Z,35.97
2023-02-24T23:20:12.892Z,36.10
2023-02-24T23:22:40.902Z,35.13
2023-02-24T23:25:31.172Z,36.33
2023-02-24T23:27:59.462Z,37.73
2023-02-24T23:30:27.042Z,36.20
2023-02-24T23:32:54.994Z,36.03
2023-02-24T23:35:22.581Z,38.13
2023-02-24T23:37:50.798Z,35.40
2023-02-24T23:40:25.904Z,35.80
2023-02-24T23:42:53.322Z,36.33
2023-02-24T23:45:21.276Z,37.17
2023-02-24T23:47:49.234Z,34.60
2023-02-24T23:50:18.449Z,35.60
2023-02-24T23:52:46.085Z,34.77
2023-02-24T23:55:13.813Z,36.97
2023-02-24T23:57:42.210Z,36.03
